createdAt,value
2022-08-20T00:00:33.376Z,51.051640
2022-08-20T00:01:33.463Z,51.051708
2022-08-20T00:02:33.369Z,51.051682
2022-08-20T00:03:33.338Z,51.051659
2022-08-20T00:04:33.961Z,51.051659
2022-08-20T00:05:33.350Z,51.051735
2022-08-20T00:06:33.320Z,51.051678
2022-08-20T00:07:33.455Z,51.051666
2022-08-20T00:08:33.311Z,51.051674
2022-08-20T00:09:33.334Z,51.051655
2022-08-20T00:10:33.311Z,51.051674
2022-08-20T00:11:34.267Z,51.051678
2022-08-20T00:12:33.274Z,51.051666
2022-08-20T00:13:33.271Z,51.051674
2022-08-20T00:14:34.075Z,51.051670
2022-08-20T00:15:33.281Z,51.051666
2022-08-20T00:16:33.250Z,51.051685
2022-08-20T00:17:34.233Z,51.051651
2022-08-20T00:18:33.259Z,51.051662
2022-08-20T00:19:33.250Z,51.051666
2022-08-20T00:20:33.267Z,51.051651
2022-08-20T00:21:33.215Z,51.051640
2022-08-20T00:22:33.219Z,51.051662
2022-08-20T00:23:33.203Z,51.051685
2022-08-20T00:24:33.193Z,51.051662
2022-08-20T00:25:33.301Z,51.051674
2022-08-20T00:26:33.199Z,51.051685
2022-08-20T00:27:33.193Z,51.051670
2022-08-20T00:28:33.157Z,51.051659
2022-08-20T00:29:33.148Z,51.051662
2022-08-20T00:30:33.168Z,51.051655
2022-08-20T00:31:33.147Z,51.051651
2022-08-20T00:32:33.971Z,51.051655
2022-08-20T00:33:33.118Z,51.051662
2022-08-20T00:34:33.121Z,51.051647
2022-08-20T00:35:33.148Z,51.051682
2022-08-20T00:36:33.176Z,51.051689
2022-08-20T00:37:33.108Z,51.051697
2022-08-20T00:38:33.095Z,51.051678
2022-08-20T00:39:33.137Z,51.051678
2022-08-20T00:40:33.129Z,51.051689
2022-08-20T00:41:33.072Z,51.051704
2022-08-20T00:42:33.085Z,51.051704
2022-08-20T00:43:33.055Z,51.051712
2022-08-20T00:44:33.174Z,51.051704
2022-08-20T00:45:33.083Z,51.051685
2022-08-20T00:46:33.861Z,51.051674
2022-08-20T00:47:33.031Z,51.051685
2022-08-20T00:48:34.027Z,51.051685
2022-08-20T00:49:33.027Z,51.051685
2022-08-20T00:50:33.007Z,51.051701
2022-08-20T00:51:33.168Z,51.051659
2022-08-20T00:52:32.992Z,51.051651
2022-08-20T00:53:32.998Z,51.051666
2022-08-20T00:54:33.009Z,51.051689
2022-08-20T00:55:32.983Z,51.051701
2022-08-20T00:56:33.021Z,51.051704
2022-08-20T00:57:54.908Z,51.051708
2022-08-20T00:58:33.949Z,51.051685
2022-08-20T00:59:32.995Z,51.051682
2022-08-20T01:00:33.838Z,51.051632
2022-08-20T01:01:32.970Z,51.051605
2022-08-20T01:02:33.983Z,51.051594
2022-08-20T01:03:32.938Z,51.051624
2022-08-20T01:04:32.911Z,51.051682
2022-08-20T01:05:33.082Z,51.051682
2022-08-20T01:06:32.897Z,51.051689
2022-08-20T01:07:32.965Z,51.051620
2022-08-20T01:08:32.879Z,51.051651
2022-08-20T01:09:49.890Z,51.051678
2022-08-20T01:10:33.870Z,51.051674
2022-08-20T01:11:37.143Z,51.051685
2022-08-20T01:12:33.898Z,51.051693
2022-08-20T01:13:32.852Z,51.051735
2022-08-20T01:14:32.837Z,51.051704
2022-08-20T01:15:32.831Z,51.051708
2022-08-20T01:16:32.834Z,51.051689
2022-08-20T01:17:32.817Z,51.051716
2022-08-20T01:18:32.829Z,51.051693
2022-08-20T01:19:32.801Z,51.051704
2022-08-20T01:20:32.797Z,51.051704
2022-08-20T01:21:32.788Z,51.051636
2022-08-20T01:22:32.813Z,51.051682
2022-08-20T01:23:32.806Z,51.051701
2022-08-20T01:24:32.759Z,51.051689
2022-08-20T01:25:32.758Z,51.051666
2022-08-20T01:26:32.755Z,51.051678
2022-08-20T01:27:33.661Z,51.051701
2022-08-20T01:28:33.766Z,51.051697
2022-08-20T01:29:32.857Z,51.051678
2022-08-20T01:30:32.748Z,51.051670
2022-08-20T01:31:32.726Z,51.051659
2022-08-20T01:32:32.728Z,51.051670
2022-08-20T01:33:32.771Z,51.051678
2022-08-20T01:34:32.716Z,51.051662
2022-08-20T01:35:32.713Z,51.051659
2022-08-20T01:36:32.680Z,51.051659
2022-08-20T01:37:32.681Z,51.051682
2022-08-20T01:38:32.713Z,51.051682
2022-08-20T01:39:32.709Z,51.051682
2022-08-20T01:40:32.656Z,51.051632
2022-08-20T01:41:32.651Z,51.051693
2022-08-20T01:42:32.662Z,51.051674
2022-08-20T01:43:36.466Z,51.051678
2022-08-20T01:44:32.685Z,51.051682
2022-08-20T01:45:32.636Z,51.051674
2022-08-20T01:46:32.613Z,51.051720
2022-08-20T01:47:35.360Z,51.051670
2022-08-20T01:48:33.595Z,51.051689
2022-08-20T01:49:32.675Z,51.051697
2022-08-20T01:50:32.585Z,51.051693
2022-08-20T01:51:32.577Z,51.051647
2022-08-20T01:52:32.624Z,51.051655
2022-08-20T01:53:32.562Z,51.051712
2022-08-20T01:54:32.590Z,51.051685
2022-08-20T01:55:32.539Z,51.051697
2022-08-20T01:56:32.547Z,51.051701
2022-08-20T01:57:32.529Z,51.051731
2022-08-20T01:58:32.513Z,51.051723
2022-08-20T01:59:33.565Z,51.051716
2022-08-20T02:00:32.521Z,51.051716
2022-08-20T02:01:32.570Z,51.051708
2022-08-20T02:02:33.522Z,51.051678
2022-08-20T02:03:36.965Z,51.051662
2022-08-20T02:04:34.520Z,51.051739
2022-08-20T02:05:32.494Z,51.051697
2022-08-20T02:06:32.462Z,51.051662
2022-08-20T02:07:32.470Z,51.051674
2022-08-20T02:08:32.468Z,51.051666
2022-08-20T02:09:32.451Z,51.051670
2022-08-20T02:10:33.259Z,51.051708
2022-08-20T02:11:32.437Z,51.051712
2022-08-20T02:12:32.441Z,51.051678
2022-08-20T02:13:32.423Z,51.051670
2022-08-20T02:14:32.433Z,51.051662
2022-08-20T02:15:37.128Z,51.051678
2022-08-20T02:16:33.411Z,51.051685
2022-08-20T02:17:32.419Z,51.051697
2022-08-20T02:18:32.389Z,51.051662
2022-08-20T02:19:32.394Z,51.051666
2022-08-20T02:20:32.416Z,51.051678
2022-08-20T02:21:32.502Z,51.051651
2022-08-20T02:22:32.362Z,51.051662
2022-08-20T02:23:32.375Z,51.051662
2022-08-20T02:24:32.356Z,51.051640
2022-08-20T02:25:32.348Z,51.051636
2022-08-20T02:26:32.386Z,51.051678
2022-08-20T02:27:32.342Z,51.051682
2022-08-20T02:28:32.322Z,51.051697
2022-08-20T02:29:32.332Z,51.051708
2022-08-20T02:30:33.330Z,51.051701
2022-08-20T02:31:34.898Z,51.051601
2022-08-20T02:32:34.126Z,51.051605
2022-08-20T02:33:32.297Z,51.051613
2022-08-20T02:34:32.296Z,51.051785
2022-08-20T02:35:32.269Z,51.051735
2022-08-20T02:36:32.269Z,51.051865
2022-08-20T02:37:32.292Z,51.051769
2022-08-20T02:38:32.267Z,51.051785
2022-08-20T02:39:32.410Z,51.051704
2022-08-20T02:40:32.241Z,51.051704
2022-08-20T02:41:32.257Z,51.051682
2022-08-20T02:42:32.268Z,51.051678
2022-08-20T02:43:32.213Z,51.051678
2022-08-20T02:44:32.223Z,51.051670
2022-08-20T02:45:32.207Z,51.051613
2022-08-20T02:46:32.207Z,51.051655
2022-08-20T02:47:32.208Z,51.051643
2022-08-20T02:48:32.189Z,51.051662
2022-08-20T02:49:32.191Z,51.051643
2022-08-20T02:50:32.244Z,51.051643
2022-08-20T02:51:32.223Z,51.051636
2022-08-20T02:52:32.177Z,51.051697
2022-08-20T02:53:32.137Z,51.051720
2022-08-20T02:54:32.142Z,51.051662
2022-08-20T02:55:32.207Z,51.051662
2022-08-20T02:56:32.112Z,51.051643
2022-08-20T02:57:32.149Z,51.051674
2022-08-20T02:58:32.117Z,51.051624
2022-08-20T02:59:32.123Z,51.051666
2022-08-20T03:00:37.977Z,51.051640
2022-08-20T03:01:33.162Z,51.051628
2022-08-20T03:02:32.124Z,51.051674
2022-08-20T03:03:32.089Z,51.051708
2022-08-20T03:04:32.079Z,51.051697
2022-08-20T03:05:32.069Z,51.051651
2022-08-20T03:06:32.067Z,51.051701
2022-08-20T03:07:32.059Z,51.051643
2022-08-20T03:08:32.073Z,51.051636
2022-08-20T03:09:32.045Z,51.051628
2022-08-20T03:10:32.036Z,51.051613
2022-08-20T03:11:32.028Z,51.051575
2022-08-20T03:12:32.092Z,51.051594
2022-08-20T03:13:32.033Z,51.051643
2022-08-20T03:14:32.006Z,51.051666
2022-08-20T03:15:32.005Z,51.051651
2022-08-20T03:16:32.018Z,51.051670
2022-08-20T03:17:31.999Z,51.051823
2022-08-20T03:18:32.004Z,51.051731
2022-08-20T03:19:31.969Z,51.051651
2022-08-20T03:20:31.969Z,51.051655
2022-08-20T03:21:31.965Z,51.051601
2022-08-20T03:22:31.948Z,51.051586
2022-08-20T03:23:32.026Z,51.051613
2022-08-20T03:24:31.940Z,51.051640
2022-08-20T03:25:31.937Z,51.051640
2022-08-20T03:26:31.943Z,51.051609
2022-08-20T03:27:32.719Z,51.051662
2022-08-20T03:28:31.977Z,51.051590
2022-08-20T03:29:31.898Z,51.051567
2022-08-20T03:30:31.894Z,51.051579
2022-08-20T03:31:31.893Z,51.051655
2022-08-20T03:32:31.896Z,51.051655
2022-08-20T03:33:31.904Z,51.051643
2022-08-20T03:34:31.880Z,51.051666
2022-08-20T03:35:31.858Z,51.051632
2022-08-20T03:36:31.874Z,51.051643
2022-08-20T03:37:31.854Z,51.051743
2022-08-20T03:38:32.406Z,51.051586
2022-08-20T03:39:31.861Z,51.051586
2022-08-20T03:40:31.826Z,51.051701
2022-08-20T03:41:31.810Z,51.051674
2022-08-20T03:42:31.799Z,51.051720
2022-08-20T03:43:31.799Z,51.051678
2022-08-20T03:44:31.816Z,51.051659
2022-08-20T03:45:31.795Z,51.051670
2022-08-20T03:46:31.789Z,51.051666
2022-08-20T03:47:31.778Z,51.051674
2022-08-20T03:48:31.776Z,51.051594
2022-08-20T03:49:31.812Z,51.051628
2022-08-20T03:50:31.757Z,51.051678
2022-08-20T03:51:31.741Z,51.051685
2022-08-20T03:52:32.742Z,51.051651
2022-08-20T03:53:31.834Z,51.051697
2022-08-20T03:54:32.177Z,51.051731
2022-08-20T03:55:31.725Z,51.051704
2022-08-20T03:56:31.721Z,51.051655
2022-08-20T03:57:31.710Z,51.051704
2022-08-20T03:58:35.639Z,51.051723
2022-08-20T03:59:31.705Z,51.051701
2022-08-20T04:00:31.719Z,51.051544
2022-08-20T04:01:45.504Z,51.051678
2022-08-20T04:02:32.775Z,51.051594
2022-08-20T04:03:31.656Z,51.051670
2022-08-20T04:04:31.657Z,51.051662
2022-08-20T04:05:31.676Z,51.051689
2022-08-20T04:06:31.639Z,51.051666
2022-08-20T04:07:31.634Z,51.051651
2022-08-20T04:08:31.626Z,51.051659
2022-08-20T04:09:31.613Z,51.051666
2022-08-20T04:10:31.633Z,51.051636
2022-08-20T04:11:31.617Z,51.051628
2022-08-20T04:12:31.590Z,51.051655
2022-08-20T04:13:31.591Z,51.051674
2022-08-20T04:14:31.583Z,51.051689
2022-08-20T04:15:31.627Z,51.051617
2022-08-20T04:16:31.568Z,51.051720
2022-08-20T04:17:32.564Z,51.051632
2022-08-20T04:18:31.560Z,51.051601
2022-08-20T04:19:34.299Z,51.051579
2022-08-20T04:20:32.639Z,51.051579
2022-08-20T04:21:32.850Z,51.051632
2022-08-20T04:22:31.527Z,51.051571
2022-08-20T04:23:31.518Z,51.051579
2022-08-20T04:24:32.795Z,51.051651
2022-08-20T04:25:36.089Z,51.051685
2022-08-20T04:26:31.502Z,51.051704
2022-08-20T04:27:31.485Z,51.051693
2022-08-20T04:28:31.494Z,51.051655
2022-08-20T04:29:31.932Z,51.051655
2022-08-20T04:30:31.480Z,51.051613
2022-08-20T04:31:31.518Z,51.051674
2022-08-20T04:32:31.464Z,51.051708
2022-08-20T04:33:33.337Z,51.051655
2022-08-20T04:34:31.460Z,51.051628
2022-08-20T04:35:31.441Z,51.051723
2022-08-20T04:36:31.502Z,51.051682
2022-08-20T04:37:31.432Z,51.051617
2022-08-20T04:38:48.209Z,51.051640
2022-08-20T04:39:32.454Z,51.051628
2022-08-20T04:40:31.411Z,51.051640
2022-08-20T04:41:31.393Z,51.051620
2022-08-20T04:42:31.440Z,51.051674
2022-08-20T04:43:31.387Z,51.051659
2022-08-20T04:44:31.368Z,51.051670
2022-08-20T04:45:31.372Z,51.051643
2022-08-20T04:46:31.358Z,51.051647
2022-08-20T04:47:34.620Z,51.051643
2022-08-20T04:48:31.344Z,51.051662
2022-08-20T04:49:31.341Z,51.051666
2022-08-20T04:50:31.343Z,51.051685
2022-08-20T04:51:31.675Z,51.051666
2022-08-20T04:52:31.315Z,51.051659
2022-08-20T04:53:31.346Z,51.051636
2022-08-20T04:54:31.300Z,51.051666
2022-08-20T04:55:31.299Z,51.051613
2022-08-20T04:56:31.293Z,51.051651
2022-08-20T04:57:31.290Z,51.051670
2022-08-20T04:58:31.307Z,51.051670
2022-08-20T04:59:31.265Z,51.051659
2022-08-20T05:00:31.266Z,51.051643
2022-08-20T05:01:31.277Z,51.051666
2022-08-20T05:02:31.241Z,51.051647
2022-08-20T05:03:31.231Z,51.051723
2022-08-20T05:04:31.273Z,51.051720
2022-08-20T05:05:31.210Z,51.051632
2022-08-20T05:06:31.238Z,51.051636
2022-08-20T05:07:31.207Z,51.051647
2022-08-20T05:08:31.194Z,51.051647
2022-08-20T05:09:31.233Z,51.051651
2022-08-20T05:10:33.191Z,51.051659
2022-08-20T05:11:35.567Z,51.051678
2022-08-20T05:12:32.166Z,51.051651
2022-08-20T05:13:31.159Z,51.051666
2022-08-20T05:14:31.147Z,51.051662
2022-08-20T05:15:31.191Z,51.051689
2022-08-20T05:16:31.141Z,51.051659
2022-08-20T05:17:31.131Z,51.051659
2022-08-20T05:18:31.124Z,51.051670
2022-08-20T05:19:32.375Z,51.051655
2022-08-20T05:20:31.206Z,51.051640
2022-08-20T05:21:31.107Z,51.051628
2022-08-20T05:22:31.160Z,51.051640
2022-08-20T05:23:31.090Z,51.051697
2022-08-20T05:24:31.079Z,51.051670
2022-08-20T05:25:31.070Z,51.051693
2022-08-20T05:26:31.145Z,51.051666
2022-08-20T05:27:31.165Z,51.051670
2022-08-20T05:28:31.058Z,51.051678
2022-08-20T05:29:31.048Z,51.051647
2022-08-20T05:30:31.053Z,51.051720
2022-08-20T05:31:33.302Z,51.051701
2022-08-20T05:32:32.089Z,51.051655
2022-08-20T05:33:32.255Z,51.051704
2022-08-20T05:34:31.124Z,51.051693
2022-08-20T05:35:31.263Z,51.051670
2022-08-20T05:36:33.692Z,51.051666
2022-08-20T05:37:32.875Z,51.051666
2022-08-20T05:38:31.930Z,51.051674
2022-08-20T05:39:35.413Z,51.051643
2022-08-20T05:40:33.805Z,51.051617
2022-08-20T05:41:30.971Z,51.051624
2022-08-20T05:42:30.993Z,51.051548
2022-08-20T05:43:30.953Z,51.051571
2022-08-20T05:44:30.948Z,51.051552
2022-08-20T05:45:30.946Z,51.051517
2022-08-20T05:46:30.929Z,51.051579
2022-08-20T05:47:30.969Z,51.051628
2022-08-20T05:48:35.764Z,51.051693
2022-08-20T05:49:32.234Z,51.051682
2022-08-20T05:50:30.903Z,51.051647
2022-08-20T05:51:30.895Z,51.051636
2022-08-20T05:52:30.893Z,51.051674
2022-08-20T05:53:30.937Z,51.051640
2022-08-20T05:54:31.313Z,51.051647
2022-08-20T05:55:32.306Z,51.051636
2022-08-20T05:56:31.068Z,51.051624
2022-08-20T05:57:30.863Z,51.051643
2022-08-20T05:58:31.136Z,51.051643
2022-08-20T05:59:31.381Z,51.051662
2022-08-20T06:00:30.841Z,51.051651
2022-08-20T06:01:30.936Z,51.051643
2022-08-20T06:02:30.824Z,51.051640
2022-08-20T06:03:31.092Z,51.051659
2022-08-20T06:04:30.876Z,51.051662
2022-08-20T06:05:31.800Z,51.051655
2022-08-20T06:06:44.472Z,51.051659
2022-08-20T06:07:31.784Z,51.051647
2022-08-20T06:08:30.909Z,51.051720
2022-08-20T06:09:32.455Z,51.051670
2022-08-20T06:10:30.949Z,51.051682
2022-08-20T06:11:33.866Z,51.051678
2022-08-20T06:12:32.858Z,51.051670
2022-08-20T06:13:30.873Z,51.051685
2022-08-20T06:14:30.741Z,51.051754
2022-08-20T06:15:30.791Z,51.051743
2022-08-20T06:16:30.850Z,51.051773
2022-08-20T06:17:34.768Z,51.051689
2022-08-20T06:18:31.741Z,51.051662
2022-08-20T06:19:32.234Z,51.051716
2022-08-20T06:20:30.744Z,51.051697
2022-08-20T06:21:30.706Z,51.051682
2022-08-20T06:22:30.708Z,51.051655
2022-08-20T06:23:45.543Z,51.051640
2022-08-20T06:24:31.676Z,51.051651
2022-08-20T06:25:33.839Z,51.051594
2022-08-20T06:26:31.736Z,51.051632
2022-08-20T06:27:30.715Z,51.051731
2022-08-20T06:28:30.868Z,51.051716
2022-08-20T06:29:30.635Z,51.051685
2022-08-20T06:30:30.629Z,51.051701
2022-08-20T06:31:30.670Z,51.051720
2022-08-20T06:32:32.406Z,51.051674
2022-08-20T06:33:30.596Z,51.051643
2022-08-20T06:34:30.925Z,51.051689
2022-08-20T06:35:30.589Z,51.051567
2022-08-20T06:36:30.583Z,51.051701
2022-08-20T06:37:31.099Z,51.051655
2022-08-20T06:38:30.570Z,51.051628
2022-08-20T06:39:30.557Z,51.051636
2022-08-20T06:40:30.579Z,51.051636
2022-08-20T06:41:36.250Z,51.051670
2022-08-20T06:42:31.614Z,51.051693
2022-08-20T06:43:30.527Z,51.051674
2022-08-20T06:44:30.524Z,51.051655
2022-08-20T06:45:30.510Z,51.051651
2022-08-20T06:46:30.523Z,51.051758
2022-08-20T06:47:30.493Z,51.051716
2022-08-20T06:48:31.546Z,51.051655
2022-08-20T06:49:34.126Z,51.051666
2022-08-20T06:50:30.477Z,51.051624
2022-08-20T06:51:30.474Z,51.051701
2022-08-20T06:52:52.337Z,51.051762
2022-08-20T06:53:31.558Z,51.051674
2022-08-20T06:54:30.464Z,51.051666
2022-08-20T06:55:30.441Z,51.051662
2022-08-20T06:56:30.439Z,51.051655
2022-08-20T06:57:30.438Z,51.051796
2022-08-20T06:58:38.318Z,51.051739
2022-08-20T06:59:31.482Z,51.051655
2022-08-20T07:00:30.416Z,51.051651
2022-08-20T07:01:30.444Z,51.051712
2022-08-20T07:02:30.635Z,51.051685
2022-08-20T07:03:31.406Z,51.051655
2022-08-20T07:04:30.445Z,51.051685
2022-08-20T07:05:30.370Z,51.051670
2022-08-20T07:06:30.357Z,51.051674
2022-08-20T07:07:30.356Z,51.051647
2022-08-20T07:08:30.352Z,51.051674
2022-08-20T07:09:30.334Z,51.051670
2022-08-20T07:10:30.396Z,51.051624
2022-08-20T07:11:30.326Z,51.051674
2022-08-20T07:12:30.328Z,51.051647
2022-08-20T07:13:30.338Z,51.051666
2022-08-20T07:14:30.466Z,51.051678
2022-08-20T07:15:30.339Z,51.051666
2022-08-20T07:16:30.302Z,51.051655
2022-08-20T07:17:30.288Z,51.051624
2022-08-20T07:18:30.278Z,51.051662
2022-08-20T07:19:30.281Z,51.051594
2022-08-20T07:20:30.268Z,51.051651
2022-08-20T07:21:30.304Z,51.051647
2022-08-20T07:22:30.250Z,51.051636
2022-08-20T07:23:30.237Z,51.051620
2022-08-20T07:24:32.820Z,51.051567
2022-08-20T07:25:30.224Z,51.051659
2022-08-20T07:26:30.402Z,51.051624
2022-08-20T07:27:30.214Z,51.051662
2022-08-20T07:28:30.206Z,51.051643
2022-08-20T07:29:30.195Z,51.051617
2022-08-20T07:30:30.194Z,51.051605
2022-08-20T07:31:31.575Z,51.051620
2022-08-20T07:32:30.174Z,51.051640
2022-08-20T07:33:30.176Z,51.051640
2022-08-20T07:34:30.157Z,51.051666
2022-08-20T07:35:30.706Z,51.051643
2022-08-20T07:36:30.159Z,51.051613
2022-08-20T07:37:30.194Z,51.051624
2022-08-20T07:38:30.124Z,51.051643
2022-08-20T07:39:30.135Z,51.051624
2022-08-20T07:40:30.140Z,51.051609
2022-08-20T07:41:30.110Z,51.051636
2022-08-20T07:42:30.138Z,51.051647
2022-08-20T07:43:30.103Z,51.051651
2022-08-20T07:44:31.195Z,51.051647
2022-08-20T07:45:30.077Z,51.051659
2022-08-20T07:46:31.322Z,51.051640
2022-08-20T07:47:30.069Z,51.051640
2022-08-20T07:48:32.231Z,51.051689
2022-08-20T07:49:30.054Z,51.051697
2022-08-20T07:50:30.047Z,51.051640
2022-08-20T07:51:30.047Z,51.051628
2022-08-20T07:52:30.023Z,51.051647
2022-08-20T07:53:34.836Z,51.051594
2022-08-20T07:54:32.020Z,51.051590
2022-08-20T07:55:30.015Z,51.051609
2022-08-20T07:56:29.996Z,51.051620
2022-08-20T07:57:29.999Z,51.051617
2022-08-20T07:58:33.285Z,51.051655
2022-08-20T07:59:30.528Z,51.051620
2022-08-20T08:00:29.973Z,51.051693
2022-08-20T08:01:29.970Z,51.051682
2022-08-20T08:02:29.957Z,51.051640
2022-08-20T08:03:39.385Z,51.051628
2022-08-20T08:04:30.988Z,51.051643
2022-08-20T08:05:29.937Z,51.051678
2022-08-20T08:06:31.271Z,51.051620
2022-08-20T08:07:32.109Z,51.051617
2022-08-20T08:08:29.909Z,51.051636
2022-08-20T08:09:29.900Z,51.051643
2022-08-20T08:10:29.934Z,51.051636
2022-08-20T08:11:29.952Z,51.051636
2022-08-20T08:12:29.882Z,51.051647
2022-08-20T08:13:29.877Z,51.051605
2022-08-20T08:14:29.885Z,51.051624
2022-08-20T08:15:29.894Z,51.051605
2022-08-20T08:16:29.850Z,51.051666
2022-08-20T08:17:29.854Z,51.051640
2022-08-20T08:18:31.895Z,51.051647
2022-08-20T08:19:30.835Z,51.051609
2022-08-20T08:20:29.837Z,51.051624
2022-08-20T08:21:29.845Z,51.051624
2022-08-20T08:22:29.817Z,51.051678
2022-08-20T08:23:32.069Z,51.051598
2022-08-20T08:24:29.823Z,51.051655
2022-08-20T08:25:30.794Z,51.051609
2022-08-20T08:26:29.789Z,51.051624
2022-08-20T08:27:29.879Z,51.051682
2022-08-20T08:28:29.769Z,51.051586
2022-08-20T08:29:29.756Z,51.051609
2022-08-20T08:30:29.765Z,51.051620
2022-08-20T08:31:30.353Z,51.051632
2022-08-20T08:32:30.292Z,51.051617
2022-08-20T08:33:29.898Z,51.051590
2022-08-20T08:34:29.797Z,51.051655
2022-08-20T08:35:29.788Z,51.051609
2022-08-20T08:36:29.763Z,51.051598
2022-08-20T08:37:30.897Z,51.051620
2022-08-20T08:38:30.685Z,51.051624
2022-08-20T08:39:34.645Z,51.051582
2022-08-20T08:40:30.728Z,51.051567
2022-08-20T08:41:29.733Z,51.051598
2022-08-20T08:42:29.786Z,51.051647
2022-08-20T08:43:31.832Z,51.051605
2022-08-20T08:44:30.329Z,51.051628
2022-08-20T08:45:29.878Z,51.051586
2022-08-20T08:46:30.327Z,51.051540
2022-08-20T08:47:30.331Z,51.051601
2022-08-20T08:48:29.698Z,51.051659
2022-08-20T08:49:37.289Z,51.051697
2022-08-20T08:50:53.027Z,51.051655
2022-08-20T08:51:31.746Z,51.051582
2022-08-20T08:52:31.928Z,51.051537
2022-08-20T08:53:29.712Z,51.051590
2022-08-20T08:54:29.647Z,51.051544
2022-08-20T08:55:30.333Z,51.051624
2022-08-20T08:56:29.868Z,51.051594
2022-08-20T08:57:30.323Z,51.051598
2022-08-20T08:58:30.334Z,51.051460
2022-08-20T08:59:46.202Z,51.051388
2022-08-20T09:00:31.282Z,51.051430
2022-08-20T09:01:55.096Z,51.051365
2022-08-20T09:02:31.328Z,51.051548
2022-08-20T09:03:30.283Z,51.051628
2022-08-20T09:04:30.325Z,51.051590
2022-08-20T09:05:30.288Z,51.051647
2022-08-20T09:06:30.287Z,51.051617
2022-08-20T09:07:30.285Z,51.051575
2022-08-20T09:08:29.663Z,51.051586
2022-08-20T09:09:29.689Z,51.051662
2022-08-20T09:10:30.285Z,51.051582
2022-08-20T09:11:29.882Z,51.051613
2022-08-20T09:12:30.397Z,51.051552
2022-08-20T09:13:29.657Z,51.051556
2022-08-20T09:14:29.674Z,51.051548
2022-08-20T09:15:29.565Z,51.051559
2022-08-20T09:16:30.060Z,51.051579
2022-08-20T09:17:31.296Z,51.051567
2022-08-20T09:18:29.418Z,51.051598
2022-08-20T09:19:29.446Z,51.051609
2022-08-20T09:20:29.411Z,51.051620
2022-08-20T09:21:29.407Z,51.051659
2022-08-20T09:22:29.584Z,51.051624
2022-08-20T09:23:29.389Z,51.051624
2022-08-20T09:24:30.793Z,51.051609
2022-08-20T09:25:29.381Z,51.051601
2022-08-20T09:26:29.428Z,51.051613
2022-08-20T09:27:29.383Z,51.051605
2022-08-20T09:28:32.244Z,51.051632
2022-08-20T09:29:29.380Z,51.051640
2022-08-20T09:30:29.339Z,51.051590
2022-08-20T09:31:29.362Z,51.051601
2022-08-20T09:32:29.380Z,51.051613
2022-08-20T09:33:29.326Z,51.051620
2022-08-20T09:34:29.349Z,51.051609
2022-08-20T09:35:29.305Z,51.051594
2022-08-20T09:36:32.327Z,51.051586
2022-08-20T09:37:33.646Z,51.051571
2022-08-20T09:38:30.293Z,51.051548
2022-08-20T09:39:29.274Z,51.051590
2022-08-20T09:40:29.272Z,51.051601
2022-08-20T09:41:29.308Z,51.051620
2022-08-20T09:42:29.282Z,51.051617
2022-08-20T09:43:29.322Z,51.051617
2022-08-20T09:44:29.255Z,51.051609
2022-08-20T09:45:29.289Z,51.051640
2022-08-20T09:46:29.237Z,51.051613
2022-08-20T09:47:29.244Z,51.051590
2022-08-20T09:48:31.916Z,51.051617
2022-08-20T09:49:29.208Z,51.051605
2022-08-20T09:50:29.230Z,51.051640
2022-08-20T09:51:29.217Z,51.051617
2022-08-20T09:52:29.190Z,51.051617
2022-08-20T09:53:29.191Z,51.051605
2022-08-20T09:54:29.227Z,51.051624
2022-08-20T09:55:29.179Z,51.051620
2022-08-20T09:56:29.173Z,51.051628
2022-08-20T09:57:29.167Z,51.051605
2022-08-20T09:58:29.150Z,51.051636
2022-08-20T09:59:29.205Z,51.051640
2022-08-20T10:00:29.160Z,51.051605
2022-08-20T10:01:29.217Z,51.051601
2022-08-20T10:02:29.132Z,51.051544
2022-08-20T10:03:29.150Z,51.051594
2022-08-20T10:04:29.125Z,51.051620
2022-08-20T10:05:29.159Z,51.051659
2022-08-20T10:06:29.136Z,51.051659
2022-08-20T10:07:29.108Z,51.051613
2022-08-20T10:08:29.087Z,51.051640
2022-08-20T10:09:29.097Z,51.051609
2022-08-20T10:10:29.088Z,51.051609
2022-08-20T10:11:29.090Z,51.051586
2022-08-20T10:12:29.075Z,51.051556
2022-08-20T10:13:29.060Z,51.051601
2022-08-20T10:14:29.066Z,51.051647
2022-08-20T10:15:29.060Z,51.051609
2022-08-20T10:16:29.040Z,51.051590
2022-08-20T10:17:29.026Z,51.051517
2022-08-20T10:18:29.770Z,51.051636
2022-08-20T10:19:30.084Z,51.051674
2022-08-20T10:20:29.033Z,51.051670
2022-08-20T10:21:29.017Z,51.051693
2022-08-20T10:22:28.993Z,51.051659
2022-08-20T10:23:28.988Z,51.051643
2022-08-20T10:24:28.995Z,51.051647
2022-08-20T10:25:29.010Z,51.051655
2022-08-20T10:26:28.972Z,51.051678
2022-08-20T10:27:28.965Z,51.051682
2022-08-20T10:29:01.865Z,51.051662
2022-08-20T10:29:28.970Z,51.051655
2022-08-20T10:30:28.994Z,51.051624
2022-08-20T10:31:28.945Z,51.051643
2022-08-20T10:32:28.930Z,51.051647
2022-08-20T10:33:28.925Z,51.051640
2022-08-20T10:34:28.927Z,51.051647
2022-08-20T10:35:28.935Z,51.051685
2022-08-20T10:36:28.954Z,51.051659
2022-08-20T10:37:28.896Z,51.051643
2022-08-20T10:38:28.886Z,51.051651
2022-08-20T10:39:28.879Z,51.051674
2022-08-20T10:40:28.873Z,51.051666
2022-08-20T10:41:28.889Z,51.051666
2022-08-20T10:42:28.855Z,51.051651
2022-08-20T10:43:28.854Z,51.051651
2022-08-20T10:44:28.932Z,51.051628
2022-08-20T10:45:28.884Z,51.051643
2022-08-20T10:46:29.936Z,51.051655
2022-08-20T10:47:28.822Z,51.051640
2022-08-20T10:48:28.813Z,51.051636
2022-08-20T10:49:28.825Z,51.051655
2022-08-20T10:50:30.482Z,51.051670
2022-08-20T10:51:32.142Z,51.051651
2022-08-20T10:52:28.823Z,51.051647
2022-08-20T10:53:28.779Z,51.051632
2022-08-20T10:54:28.778Z,51.051628
2022-08-20T10:55:29.079Z,51.051643
2022-08-20T10:56:28.807Z,51.051636
2022-08-20T10:57:28.833Z,51.051636
2022-08-20T10:58:37.557Z,51.051655
2022-08-20T10:59:29.736Z,51.051655
2022-08-20T11:00:28.739Z,51.051689
2022-08-20T11:01:32.733Z,51.051647
2022-08-20T11:02:29.819Z,51.051651
2022-08-20T11:03:28.717Z,51.051636
2022-08-20T11:04:28.720Z,51.051678
2022-08-20T11:05:28.733Z,51.051678
2022-08-20T11:06:28.821Z,51.051624
2022-08-20T11:07:49.440Z,51.051624
2022-08-20T11:08:33.866Z,51.051651
2022-08-20T11:09:29.670Z,51.051655
2022-08-20T11:10:28.692Z,51.051651
2022-08-20T11:11:28.669Z,51.051640
2022-08-20T11:12:28.903Z,51.051655
2022-08-20T11:13:28.881Z,51.051704
2022-08-20T11:14:28.640Z,51.051697
2022-08-20T11:15:28.639Z,51.051693
2022-08-20T11:16:28.869Z,51.051643
2022-08-20T11:17:28.739Z,51.051647
2022-08-20T11:18:29.232Z,51.051647
2022-08-20T11:19:28.781Z,51.051651
2022-08-20T11:20:28.738Z,51.051586
2022-08-20T11:21:29.225Z,51.051662
2022-08-20T11:22:28.947Z,51.051659
2022-08-20T11:23:28.702Z,51.051632
2022-08-20T11:24:28.679Z,51.051620